MMAS/AGU METAR and TAF weather

Enter ICAO airport designator
Station Type Date Time Source
MMAS METAR 2020/11/28 19:41 UTC NOAA

MMAS 281941Z 27004KT 13SM BKN200 26/M02 A3018 RMK 8/002


Station Type Date Time Source
MMAS Decoded METAR 2020/11/28 19:41 UTC NOAA

Aguascalientes, Ags., Mexico (MMAS) 21-53N 102-18W
Nov 28, 2020 - 02:41 PM EST / 2020.11.28 1941 UTC
Wind: from the W (270 degrees) at 5 MPH (4 KT):0
Visibility: 13 mile(s):0
Sky conditions: mostly cloudy
Temperature: 78 F (26 C)
Dew Point: 28 F (-2 C)
Relative Humidity: 15%
Pressure (altimeter): 30.18 in. Hg (1022 hPa)
ob: MMAS 281941Z 27004KT 13SM BKN200 26/M02 A3018 RMK 8/002
cycle: 19

Station Type Date Time Source
MMAS TAF 2020/11/28 18:33 UTC NOAA

TAF MMAS 281627Z 2818/2918 24010KT P6SM SCT220
FM290300 20005KT P6SM SKC
FM291600 22010KT P6SM SKC

Example: see airport list